Time;durP1;ratioP1;P1;durP2;ratioP2;P2;SDS_P1;SDS_P2;PMS_P1;PMS_P2;Temp;Humidity;BMP_temperature;BMP_pressure;BME280_temperature;BME280_humidity;BME280_pressure;Samples;Min_cycle;Max_cycle;Signal;HPM_P1;HPM_P2
2021/04/10 00:01:40;;;;;;;;;;;;;;;7.77;94.30;98580.63;5050876;28;20115;-78
2021/04/10 00:04:06;;;;;;;;;;;;;;;7.80;94.45;98583.09;5051846;28;20493;-79
2021/04/10 00:06:31;;;;;;;;;;;;;;;7.48;94.63;98577.09;5040184;28;19921;-78
2021/04/10 00:08:57;;;;;;;;;;;;;;;7.39;94.48;98582.47;5057959;28;19912;-78
2021/04/10 00:11:22;;;;;;;;;;;;;;;7.21;95.55;98582.09;5075584;28;19916;-78
2021/04/10 00:13:48;;;;;;;;;;;;;;;7.56;95.50;98584.63;5058955;28;19916;-78
2021/04/10 00:16:13;;;;;;;;;;;;;;;7.59;95.23;98584.53;5058101;28;19920;-78
2021/04/10 00:18:39;;;;;;;;;;;;;;;7.42;95.98;98580.69;5063851;28;19995;-78
2021/04/10 00:21:04;;;;;;;;;;;;;;;7.18;96.93;98568.50;5047009;28;19924;-78
2021/04/10 00:23:30;;;;;;;;;;;;;;;7.20;97.77;98574.44;5062919;28;20370;-78
2021/04/10 00:25:55;;;;;;;;;;;;;;;7.36;97.93;98562.91;5064913;28;19933;-78
2021/04/10 00:28:20;;;;;;;;;;;;;;;6.86;98.28;98558.16;5044760;28;19917;-78
2021/04/10 00:30:46;;;;;;;;;;;;;;;6.74;99.77;98555.91;5063440;28;19905;-78
2021/04/10 00:33:11;;;;;;;;;;;;;;;7.15;100.00;98553.22;5053410;28;19928;-81
2021/04/10 00:35:36;;;;;;;;;;;;;;;6.99;99.87;98553.59;5051420;28;19939;-78
2021/04/10 00:38:02;;;;;;;;;;;;;;;7.05;100.00;98550.91;5035560;28;19974;-78
2021/04/10 00:40:27;;;;;;;;;;;;;;;7.15;100.00;98553.22;5051585;28;20002;-80
2021/04/10 00:42:53;;;;;;;;;;;;;;;7.39;99.69;98552.59;5052927;28;19917;-80
2021/04/10 00:45:18;;;;;;;;;;;;;;;7.18;99.56;98555.69;5050049;28;20458;-78
2021/04/10 00:47:44;;;;;;;;;;;;;;;7.46;99.50;98549.00;5052553;28;19947;-81
2021/04/10 00:50:09;;;;;;;;;;;;;;;7.09;99.35;98546.53;5040412;28;20384;-80
2021/04/10 00:52:35;;;;;;;;;;;;;;;7.01;100.00;98535.66;5058488;28;19943;-80
2021/04/10 00:55:01;;;;;;;;;;;;;;;6.96;100.00;98538.31;5057934;28;19916;-80
2021/04/10 00:57:26;;;;;;;;;;;;;;;6.93;100.00;98528.16;5040736;28;20122;-80
2021/04/10 00:59:53;;;;;;;;;;;;;;;6.67;100.00;98519.38;5039887;28;19924;-77
2021/04/10 01:02:18;;;;;;;;;;;;;;;6.67;100.00;98523.66;5039115;28;19963;-81
2021/04/10 01:04:43;;;;;;;;;;;;;;;6.68;100.00;98535.56;5043516;28;19924;-81
2021/04/10 01:07:09;;;;;;;;;;;;;;;6.65;100.00;98536.50;5055088;28;19920;-79
2021/04/10 01:09:34;;;;;;;;;;;;;;;7.06;100.00;98538.94;5035242;28;19905;-81
2021/04/10 01:12:15;;;;;;;;;;;;;;;6.84;100.00;98539.47;5052825;28;19932;-80
2021/04/10 01:15:00;;;;;;;;;;;;;;;6.79;100.00;98525.91;5053198;28;19927;-80
2021/04/10 01:17:27;;;;;;;;;;;;;;;7.01;100.00;98536.47;5074292;28;19988;-80
2021/04/10 01:20:01;;;;;;;;;;;;;;;6.98;100.00;98534.00;5055085;28;19927;-81
2021/04/10 01:22:42;;;;;;;;;;;;;;;6.67;100.00;98537.31;5079055;28;19920;-81
2021/04/10 01:25:09;;;;;;;;;;;;;;;6.73;100.00;98538.03;5054190;28;19934;-80
2021/04/10 01:27:38;;;;;;;;;;;;;;;6.81;100.00;98541.25;5058119;28;19916;-80
2021/04/10 01:30:03;;;;;;;;;;;;;;;7.09;100.00;98537.16;5055613;28;19980;-80
2021/04/10 01:32:29;;;;;;;;;;;;;;;7.01;100.00;98533.94;5074004;28;20164;-78
2021/04/10 01:34:57;;;;;;;;;;;;;;;6.93;100.00;98547.78;5039473;28;19967;-81
2021/04/10 01:37:29;;;;;;;;;;;;;;;7.01;100.00;98540.78;5056748;28;20386;-81
2021/04/10 01:39:56;;;;;;;;;;;;;;;6.96;100.00;98540.88;5039601;28;19905;-79
2021/04/10 01:42:22;;;;;;;;;;;;;;;7.27;100.00;98540.94;5039797;28;19924;-79
2021/04/10 01:44:47;;;;;;;;;;;;;;;7.09;100.00;98539.72;5054298;28;20353;-80
2021/04/10 01:47:14;;;;;;;;;;;;;;;6.97;100.00;98534.88;5057142;28;19955;-78
2021/04/10 01:49:39;;;;;;;;;;;;;;;7.44;100.00;98540.50;5053498;28;19920;-78
2021/04/10 01:52:05;;;;;;;;;;;;;;;7.18;100.00;98542.88;5051216;28;19925;-81
2021/04/10 01:54:31;;;;;;;;;;;;;;;7.15;100.00;98535.31;5055684;28;19916;-81
2021/04/10 01:56:56;;;;;;;;;;;;;;;7.35;100.00;98533.06;5055077;28;19916;-81
2021/04/10 01:59:21;;;;;;;;;;;;;;;7.52;100.00;98532.59;5037296;28;19966;-78
2021/04/10 02:01:47;;;;;;;;;;;;;;;7.56;99.53;98534.19;5050776;28;19956;-81
2021/04/10 02:04:13;;;;;;;;;;;;;;;7.27;100.00;98537.53;5039303;28;19984;-81
2021/04/10 02:06:39;;;;;;;;;;;;;;;7.27;100.00;98542.66;5051885;28;19916;-78
2021/04/10 02:09:04;;;;;;;;;;;;;;;7.24;100.00;98553.00;5053547;28;19912;-78
2021/04/10 02:11:31;;;;;;;;;;;;;;;7.08;100.00;98552.53;5036750;28;20607;-81
2021/04/10 02:13:56;;;;;;;;;;;;;;;6.87;100.00;98553.91;5049214;28;19920;-80
2021/04/10 02:16:23;;;;;;;;;;;;;;;6.75;100.00;98546.50;5034565;28;19923;-81
2021/04/10 02:18:49;;;;;;;;;;;;;;;6.54;100.00;98541.00;5055017;28;19939;-81
2021/04/10 02:21:14;;;;;;;;;;;;;;;6.16;100.00;98547.84;5036395;28;19931;-81
2021/04/10 02:23:41;;;;;;;;;;;;;;;6.22;100.00;98544.31;5054390;28;20345;-80
2021/04/10 02:26:07;;;;;;;;;;;;;;;6.35;100.00;98550.00;5056707;28;19928;-80
2021/04/10 02:28:32;;;;;;;;;;;;;;;6.35;100.00;98555.13;5048417;28;19920;-80
2021/04/10 02:30:58;;;;;;;;;;;;;;;6.45;100.00;98552.31;5053330;28;19916;-80
2021/04/10 02:33:26;;;;;;;;;;;;;;;7.08;100.00;98558.50;5039568;28;19925;-80
2021/04/10 02:35:52;;;;;;;;;;;;;;;7.26;100.00;98553.78;5056405;28;19924;-80
2021/04/10 02:38:18;;;;;;;;;;;;;;;7.06;100.00;98555.13;5056267;28;19920;-80
2021/04/10 02:40:43;;;;;;;;;;;;;;;6.49;100.00;98556.47;5073127;28;19924;-80
2021/04/10 02:43:09;;;;;;;;;;;;;;;6.98;100.00;98551.06;5055608;28;19920;-80
2021/04/10 02:45:35;;;;;;;;;;;;;;;7.34;100.00;98549.28;5056419;28;19912;-81
2021/04/10 02:48:02;;;;;;;;;;;;;;;7.27;100.00;98552.91;5038238;28;19908;-80
2021/04/10 02:50:27;;;;;;;;;;;;;;;7.39;100.00;98555.16;5054845;28;21003;-80
2021/04/10 02:52:53;;;;;;;;;;;;;;;7.44;100.00;98555.88;5056576;28;19921;-81
2021/04/10 02:55:28;;;;;;;;;;;;;;;7.52;100.00;98553.94;5059820;28;19923;-80
2021/04/10 02:57:53;;;;;;;;;;;;;;;7.49;100.00;98564.28;5074601;28;19951;-80
2021/04/10 03:00:19;;;;;;;;;;;;;;;7.50;100.00;98559.97;5040154;28;19916;-80
2021/04/10 03:02:44;;;;;;;;;;;;;;;7.44;100.00;98560.16;5054531;28;19931;-80
2021/04/10 03:05:11;;;;;;;;;;;;;;;7.52;100.00;98547.97;5056809;28;20053;-81
2021/04/10 03:07:37;;;;;;;;;;;;;;;7.38;100.00;98558.59;5038056;28;19932;-80
2021/04/10 03:10:03;;;;;;;;;;;;;;;7.31;100.00;98551.94;5059230;28;19996;-80
2021/04/10 03:12:28;;;;;;;;;;;;;;;7.43;100.00;98554.16;5058573;28;19967;-80
2021/04/10 03:14:53;;;;;;;;;;;;;;;7.43;100.00;98559.28;5042821;28;20382;-80
2021/04/10 03:17:22;;;;;;;;;;;;;;;7.44;100.00;98555.03;5040871;28;19920;-80
2021/04/10 03:19:48;;;;;;;;;;;;;;;7.36;100.00;98550.09;5054601;28;19992;-80
2021/04/10 03:22:14;;;;;;;;;;;;;;;6.75;100.00;98555.06;5041850;28;20569;-80
2021/04/10 03:24:39;;;;;;;;;;;;;;;6.34;100.00;98554.28;5056539;28;20362;-80
2021/04/10 03:27:05;;;;;;;;;;;;;;;6.67;100.00;98555.22;5057988;28;19927;-80
2021/04/10 03:29:30;;;;;;;;;;;;;;;6.62;100.00;98556.22;5041467;28;19920;-80
2021/04/10 03:31:55;;;;;;;;;;;;;;;6.75;100.00;98555.06;5058095;28;19921;-80
2021/04/10 03:34:21;;;;;;;;;;;;;;;7.08;100.00;98558.50;5040950;28;19959;-80
2021/04/10 03:36:46;;;;;;;;;;;;;;;7.25;100.00;98559.78;5056736;28;19920;-80
2021/04/10 03:39:12;;;;;;;;;;;;;;;7.32;100.00;98553.59;5057333;28;19920;-80
2021/04/10 03:41:37;;;;;;;;;;;;;;;7.39;100.00;98564.53;5059047;28;19923;-80
2021/04/10 03:44:02;;;;;;;;;;;;;;;7.33;100.00;98565.56;5056912;28;19996;-80
2021/04/10 03:46:27;;;;;;;;;;;;;;;7.34;100.00;98569.78;5057173;28;20809;-80
2021/04/10 03:48:53;;;;;;;;;;;;;;;6.31;100.00;98579.06;5041277;28;20840;-80
2021/04/10 03:51:18;;;;;;;;;;;;;;;5.75;100.00;98582.72;5057025;28;19925;-80
2021/04/10 03:53:43;;;;;;;;;;;;;;;6.30;100.00;98567.16;5056313;28;19925;-80
2021/04/10 03:56:09;;;;;;;;;;;;;;;6.43;100.00;98568.56;5036851;28;19932;-80
2021/04/10 03:58:35;;;;;;;;;;;;;;;6.61;100.00;98568.13;5040466;28;19939;-80
2021/04/10 04:01:00;;;;;;;;;;;;;;;6.87;100.00;98579.50;5056531;28;19953;-80
2021/04/10 04:03:25;;;;;;;;;;;;;;;6.84;100.00;98579.56;5055965;28;19917;-80
2021/04/10 04:05:50;;;;;;;;;;;;;;;6.90;100.00;98579.41;5041915;28;20007;-80
2021/04/10 04:08:16;;;;;;;;;;;;;;;6.56;100.00;98585.31;5058430;28;19921;-79
2021/04/10 04:10:41;;;;;;;;;;;;;;;5.99;100.00;98598.47;5056504;28;19959;-80
2021/04/10 04:13:06;;;;;;;;;;;;;;;6.58;100.00;98593.81;5076138;28;19924;-80
2021/04/10 04:15:32;;;;;;;;;;;;;;;6.15;100.00;98604.13;5057907;28;19920;-80
2021/04/10 04:17:57;;;;;;;;;;;;;;;6.35;100.00;98606.25;5043312;28;19925;-80
2021/04/10 04:20:23;;;;;;;;;;;;;;;6.00;100.00;98615.50;5075112;28;20155;-80
2021/04/10 04:22:48;;;;;;;;;;;;;;;5.96;100.00;98617.25;5041534;28;19917;-80
2021/04/10 04:25:13;;;;;;;;;;;;;;;5.91;100.00;98618.19;5058868;28;19948;-80
2021/04/10 04:27:39;;;;;;;;;;;;;;;5.85;100.00;98620.00;5054533;28;19952;-80
2021/04/10 04:30:05;;;;;;;;;;;;;;;5.84;100.00;98625.16;5054630;28;19913;-80
2021/04/10 04:32:30;;;;;;;;;;;;;;;5.90;100.00;98624.19;5048030;28;19991;-80
2021/04/10 04:34:56;;;;;;;;;;;;;;;6.40;100.00;98624.91;5056672;28;19916;-80
2021/04/10 04:37:21;;;;;;;;;;;;;;;6.61;100.00;98631.25;5057379;28;19924;-80
2021/04/10 04:39:46;;;;;;;;;;;;;;;6.52;100.00;98637.41;5041791;28;19916;-80
2021/04/10 04:42:11;;;;;;;;;;;;;;;6.56;100.00;98635.66;5059427;28;19920;-80
2021/04/10 04:44:37;;;;;;;;;;;;;;;6.35;100.00;98642.06;5042567;28;19920;-80
2021/04/10 04:47:02;;;;;;;;;;;;;;;6.40;100.00;98642.81;5055781;28;19923;-80
2021/04/10 04:49:28;;;;;;;;;;;;;;;6.45;100.00;98646.09;5054955;28;19919;-80
2021/04/10 04:51:53;;;;;;;;;;;;;;;6.59;100.00;98646.66;5075743;28;19928;-80
2021/04/10 04:54:19;;;;;;;;;;;;;;;7.02;100.00;98655.09;5041700;28;19927;-80
2021/04/10 04:56:44;;;;;;;;;;;;;;;7.23;100.00;98653.72;5054529;28;20006;-81
2021/04/10 04:59:10;;;;;;;;;;;;;;;7.15;100.00;98660.78;5055818;28;19920;-81
2021/04/10 05:01:35;;;;;;;;;;;;;;;6.93;100.00;98658.69;5042971;28;19916;-81
2021/04/10 05:04:00;;;;;;;;;;;;;;;7.11;100.00;98655.72;5058967;28;19916;-81
2021/04/10 05:06:25;;;;;;;;;;;;;;;7.21;100.00;98660.63;5041806;28;20302;-80
2021/04/10 05:08:51;;;;;;;;;;;;;;;7.27;100.00;98661.31;5040457;28;19913;-81
2021/04/10 05:11:16;;;;;;;;;;;;;;;7.08;100.00;98660.91;5038951;28;19932;-80
2021/04/10 05:13:41;;;;;;;;;;;;;;;7.18;100.00;98668.38;5037310;28;19948;-80
2021/04/10 05:16:07;;;;;;;;;;;;;;;6.57;100.00;98668.03;5038920;28;20161;-80
2021/04/10 05:18:32;;;;;;;;;;;;;;;6.82;100.00;98664.06;5041557;28;19916;-80
2021/04/10 05:20:57;;;;;;;;;;;;;;;6.86;100.00;98654.59;5039746;28;19920;-80
2021/04/10 05:23:23;;;;;;;;;;;;;;;6.52;100.00;98651.94;5036821;28;19920;-80
2021/04/10 05:25:49;;;;;;;;;;;;;;;5.94;100.00;98643.69;5057099;28;19928;-80
2021/04/10 05:28:14;;;;;;;;;;;;;;;6.02;100.00;98634.19;5047782;28;19920;-80
2021/04/10 05:30:40;;;;;;;;;;;;;;;6.18;100.00;98635.59;5033906;28;20665;-80
2021/04/10 05:33:05;;;;;;;;;;;;;;;6.14;100.00;98628.84;5052675;28;19904;-80
2021/04/10 05:35:30;;;;;;;;;;;;;;;5.98;100.00;98633.41;5043365;28;19931;-80
2021/04/10 05:37:55;;;;;;;;;;;;;;;6.18;100.00;98645.81;5058264;28;19917;-79
2021/04/10 05:40:21;;;;;;;;;;;;;;;6.72;100.00;98659.19;5056225;28;19950;-80
2021/04/10 05:42:46;;;;;;;;;;;;;;;6.46;100.00;98669.09;5058292;28;19920;-80
2021/04/10 05:45:12;;;;;;;;;;;;;;;6.17;100.00;98679.06;5040002;28;20516;-81
2021/04/10 05:47:37;;;;;;;;;;;;;;;5.99;100.00;98677.69;5058321;28;19916;-80
2021/04/10 05:50:03;;;;;;;;;;;;;;;6.20;100.00;98677.31;5057293;28;19946;-80
2021/04/10 05:52:28;;;;;;;;;;;;;;;6.28;100.00;98682.25;5056017;28;19935;-80
2021/04/10 05:54:53;;;;;;;;;;;;;;;6.87;100.00;98679.34;5056750;28;19923;-80
2021/04/10 05:57:19;;;;;;;;;;;;;;;7.01;100.00;98679.84;5057194;28;19943;-81
2021/04/10 05:59:44;;;;;;;;;;;;;;;7.02;100.00;98678.97;5058180;28;19955;-81
2021/04/10 06:02:09;;;;;;;;;;;;;;;7.44;100.00;98683.13;5056672;28;19912;-81
2021/04/10 06:04:35;;;;;;;;;;;;;;;7.51;100.00;98687.22;5054771;28;20003;-81
2021/04/10 06:07:00;;;;;;;;;;;;;;;7.10;100.00;98684.75;5041117;28;19916;-82
2021/04/10 06:09:25;;;;;;;;;;;;;;;7.25;100.00;98696.38;5054672;28;20471;-82
2021/04/10 06:11:51;;;;;;;;;;;;;;;7.51;100.00;98700.88;5057373;28;19920;-81
2021/04/10 06:14:18;;;;;;;;;;;;;;;7.38;100.00;98699.47;5037812;28;19916;-81
2021/04/10 06:16:43;;;;;;;;;;;;;;;6.90;100.00;98707.41;5039839;28;19920;-81
2021/04/10 06:19:08;;;;;;;;;;;;;;;6.86;100.00;98705.78;5055575;28;19917;-82
2021/04/10 06:21:34;;;;;;;;;;;;;;;6.60;100.00;98708.91;5055843;28;19928;-81
2021/04/10 06:23:59;;;;;;;;;;;;;;;6.87;100.00;98710.06;5041433;28;20272;-81
2021/04/10 06:26:25;;;;;;;;;;;;;;;6.92;100.00;98710.78;5056028;28;19916;-80
2021/04/10 06:28:50;;;;;;;;;;;;;;;6.88;100.00;98712.56;5056452;28;19924;-81
2021/04/10 06:31:15;;;;;;;;;;;;;;;6.76;100.00;98709.44;5037341;28;20016;-82
2021/04/10 06:33:40;;;;;;;;;;;;;;;7.02;100.00;98717.38;5039662;28;20395;-80
2021/04/10 06:36:06;;;;;;;;;;;;;;;7.05;100.00;98722.44;5041838;28;19920;-81
2021/04/10 06:38:31;;;;;;;;;;;;;;;6.94;100.00;98726.13;5042187;28;19992;-81
2021/04/10 06:40:59;;;;;;;;;;;;;;;7.37;100.00;98733.69;5042799;28;19916;-81
2021/04/10 06:43:24;;;;;;;;;;;;;;;7.63;100.00;98725.34;5044593;28;19927;-81
2021/04/10 06:45:49;;;;;;;;;;;;;;;7.65;100.00;98717.63;5045262;28;19921;-81
2021/04/10 06:48:15;;;;;;;;;;;;;;;7.50;100.00;98719.69;5062559;28;20314;-81
2021/04/10 06:50:41;;;;;;;;;;;;;;;7.36;100.00;98724.28;5041793;28;19929;-81
2021/04/10 06:53:06;;;;;;;;;;;;;;;7.30;100.00;98721.88;5057471;28;20205;-81
2021/04/10 06:55:32;;;;;;;;;;;;;;;6.87;100.00;98717.72;5040125;28;19956;-80
2021/04/10 06:58:04;;;;;;;;;;;;;;;7.16;100.00;98722.22;5041560;28;19940;-81
2021/04/10 07:00:29;;;;;;;;;;;;;;;6.90;100.00;98717.66;5057788;28;19917;-81
2021/04/10 07:02:55;;;;;;;;;;;;;;;6.95;100.00;98728.63;5075321;28;19923;-81
2021/04/10 07:05:21;;;;;;;;;;;;;;;6.93;100.00;98726.97;5057780;28;19936;-81
2021/04/10 07:07:46;;;;;;;;;;;;;;;6.85;100.00;98729.72;5034509;28;19916;-82
2021/04/10 07:10:12;;;;;;;;;;;;;;;6.51;100.00;98725.28;5056135;28;19917;-83
2021/04/10 07:12:37;;;;;;;;;;;;;;;6.37;100.00;98720.44;5040742;28;19920;-80
2021/04/10 07:15:05;;;;;;;;;;;;;;;6.60;100.00;98725.09;5056861;28;20613;-81
2021/04/10 07:17:30;;;;;;;;;;;;;;;6.46;100.00;98730.50;5056534;28;19917;-82
2021/04/10 07:19:55;;;;;;;;;;;;;;;6.27;100.00;98732.56;5036791;28;20667;-82
2021/04/10 07:22:20;;;;;;;;;;;;;;;6.35;100.00;98729.84;5040135;28;19925;-82
2021/04/10 07:24:47;;;;;;;;;;;;;;;6.56;100.00;98738.81;5056785;28;20330;-84
2021/04/10 07:27:15;;;;;;;;;;;;;;;6.75;100.00;98733.31;5040298;28;20332;-81
2021/04/10 07:29:43;;;;;;;;;;;;;;;6.38;100.00;98741.75;5055715;28;19917;-83
2021/04/10 07:32:21;;;;;;;;;;;;;;;7.01;100.00;98736.19;5050149;28;19924;-83
2021/04/10 07:34:46;;;;;;;;;;;;;;;6.99;100.00;98737.94;5056059;28;19939;-84
2021/04/10 07:37:11;;;;;;;;;;;;;;;7.03;100.00;98744.66;5038825;28;19920;-84
2021/04/10 07:39:44;;;;;;;;;;;;;;;7.07;100.00;98745.44;5041135;28;19948;-84
2021/04/10 07:42:09;;;;;;;;;;;;;;;7.18;100.00;98756.28;5037666;28;19920;-83
2021/04/10 07:44:38;;;;;;;;;;;;;;;7.31;100.00;98755.13;5053432;28;19912;-83
2021/04/10 07:47:04;;;;;;;;;;;;;;;7.18;100.00;98755.44;5054490;28;19925;-82
2021/04/10 07:49:29;;;;;;;;;;;;;;;6.69;100.00;98755.63;5055577;28;19928;-81
2021/04/10 07:51:56;;;;;;;;;;;;;;;7.00;100.00;98764.38;5047541;28;19924;-81
2021/04/10 07:54:28;;;;;;;;;;;;;;;7.10;100.00;98765.88;5053964;28;19939;-82
2021/04/10 07:57:14;;;;;;;;;;;;;;;6.67;100.00;98759.91;5033268;28;19916;-82
2021/04/10 07:59:45;;;;;;;;;;;;;;;6.78;100.00;98757.16;5063964;28;20417;-82
2021/04/10 08:02:11;;;;;;;;;;;;;;;6.85;100.00;98755.31;5054486;28;19917;-81
2021/04/10 08:04:38;;;;;;;;;;;;;;;6.99;100.00;98752.44;5053609;28;19913;-82
2021/04/10 08:07:03;;;;;;;;;;;;;;;7.38;100.00;98744.75;5051906;28;19962;-81
2021/04/10 08:09:32;;;;;;;;;;;;;;;7.21;100.00;98752.84;5053685;28;20007;-82
2021/04/10 08:11:57;;;;;;;;;;;;;;;7.30;100.00;98750.06;5055382;28;19916;-80
2021/04/10 08:14:24;;;;;;;;;;;;;;;8.34;100.00;98751.75;5038045;28;20364;-82
2021/04/10 08:16:50;;;;;;;;;;;;;;;8.56;100.00;98749.47;5030367;28;19923;-82
2021/04/10 08:19:16;;;;;;;;;;;;;;;8.60;100.00;98766.47;5054005;28;20278;-79
2021/04/10 08:21:41;;;;;;;;;;;;;;;8.09;100.00;98769.50;5050672;28;19921;-85
2021/04/10 08:24:25;;;;;;;;;;;;;;;8.25;100.00;98765.66;5054018;28;19947;-83
2021/04/10 08:26:51;;;;;;;;;;;;;;;8.24;100.00;98761.41;5053443;28;19917;-82
2021/04/10 08:29:17;;;;;;;;;;;;;;;9.00;100.00;98768.72;5053145;28;20533;-81
2021/04/10 08:31:43;;;;;;;;;;;;;;;9.26;100.00;98761.13;5035412;28;19928;-80
2021/04/10 08:34:08;;;;;;;;;;;;;;;9.70;100.00;98764.88;5034046;28;19970;-81
2021/04/10 08:36:33;;;;;;;;;;;;;;;9.26;100.00;98761.13;5053597;28;19917;-81
2021/04/10 08:38:59;;;;;;;;;;;;;;;9.19;100.00;98766.47;5051716;28;19921;-81
2021/04/10 08:41:27;;;;;;;;;;;;;;;9.71;100.00;98771.69;5053197;28;20081;-81
2021/04/10 08:43:52;;;;;;;;;;;;;;;9.75;100.00;98769.88;5030302;28;19924;-81
2021/04/10 08:46:18;;;;;;;;;;;;;;;9.87;100.00;98766.91;5050018;28;20409;-82
2021/04/10 08:48:44;;;;;;;;;;;;;;;10.05;100.00;98770.59;5052149;28;20011;-80
2021/04/10 08:51:09;;;;;;;;;;;;;;;10.50;100.00;98769.13;5035416;28;19921;-81
2021/04/10 08:53:36;;;;;;;;;;;;;;;10.20;100.00;98776.97;5050655;28;19921;-81
2021/04/10 08:56:06;;;;;;;;;;;;;;;10.48;100.00;98766.59;5051737;28;19920;-80
2021/04/10 08:58:31;;;;;;;;;;;;;;;10.29;100.00;98768.13;5034230;28;19927;-81
2021/04/10 09:00:57;;;;;;;;;;;;;;;10.15;100.00;98778.84;5047050;28;20481;-82
2021/04/10 09:03:41;;;;;;;;;;;;;;;9.91;100.00;98776.19;5032162;28;20016;-81
2021/04/10 09:06:07;;;;;;;;;;;;;;;10.14;100.00;98783.16;5048010;28;20297;-81
2021/04/10 09:08:32;;;;;;;;;;;;;;;9.69;100.00;98788.91;5047514;28;19917;-79
2021/04/10 09:10:58;;;;;;;;;;;;;;;9.74;100.00;98783.63;5030743;28;19963;-81
2021/04/10 09:13:24;;;;;;;;;;;;;;;9.08;100.00;98794.22;5049000;28;19991;-81
2021/04/10 09:15:55;;;;;;;;;;;;;;;8.61;100.00;98798.13;5049329;28;19917;-81
2021/04/10 09:18:21;;;;;;;;;;;;;;;8.98;100.00;98796.19;5030725;28;19974;-81
2021/04/10 09:20:48;;;;;;;;;;;;;;;9.19;100.00;98787.03;5047103;28;19921;-81
2021/04/10 09:23:33;;;;;;;;;;;;;;;8.56;100.00;98799.06;5024282;28;20742;-81
2021/04/10 09:26:12;;;;;;;;;;;;;;;8.90;100.00;98800.72;5045362;28;19967;-81
2021/04/10 09:28:57;;;;;;;;;;;;;;;8.63;100.00;98806.63;5045302;28;20269;-80
2021/04/10 09:31:41;;;;;;;;;;;;;;;8.50;100.00;98806.09;5043171;28;20306;-80
2021/04/10 09:34:26;;;;;;;;;;;;;;;8.87;100.00;98805.09;5029661;28;19929;-81
2021/04/10 09:36:51;;;;;;;;;;;;;;;8.81;100.00;98805.28;5045669;28;19920;-81
2021/04/10 09:39:35;;;;;;;;;;;;;;;9.42;100.00;98803.50;5042850;28;19943;-81
2021/04/10 09:42:01;;;;;;;;;;;;;;;9.79;100.00;98810.03;5042955;28;19931;-79
2021/04/10 09:44:26;;;;;;;;;;;;;;;9.12;100.00;98806.09;5026702;28;19917;-80
2021/04/10 09:46:55;;;;;;;;;;;;;;;9.46;100.00;98815.34;5045065;28;19968;-80
2021/04/10 09:49:36;;;;;;;;;;;;;;;9.10;100.00;98796.72;5043465;28;20412;-79
2021/04/10 09:52:02;;;;;;;;;;;;;;;9.19;100.00;98799.88;5062854;28;19966;-79
2021/04/10 09:54:27;;;;;;;;;;;;;;;9.43;100.00;98800.00;5046081;28;19920;-80
2021/04/10 09:56:53;;;;;;;;;;;;;;;9.18;100.00;98798.19;5048629;28;19916;-80
2021/04/10 09:59:18;;;;;;;;;;;;;;;9.30;100.00;98803.84;5031206;28;20530;-80
2021/04/10 10:01:43;;;;;;;;;;;;;;;9.36;100.00;98803.66;5044199;28;19921;-80
2021/04/10 10:04:14;;;;;;;;;;;;;;;9.07;100.00;98797.66;5031560;28;19916;-80
2021/04/10 10:06:56;;;;;;;;;;;;;;;9.81;100.00;98805.69;5048012;28;19921;-79
2021/04/10 10:09:26;;;;;;;;;;;;;;;10.05;100.00;98797.16;5047952;28;19917;-79
2021/04/10 10:11:52;;;;;;;;;;;;;;;10.05;100.00;98801.47;5047834;28;19916;-79
2021/04/10 10:14:17;;;;;;;;;;;;;;;9.28;100.00;98787.63;5049200;28;19923;-79
2021/04/10 10:16:42;;;;;;;;;;;;;;;9.10;100.00;98797.56;5045211;28;21035;-79
2021/04/10 10:19:14;;;;;;;;;;;;;;;8.82;100.00;98796.69;5045607;28;19919;-79
2021/04/10 10:21:39;;;;;;;;;;;;;;;9.56;100.00;98791.03;5046420;28;19995;-80
2021/04/10 10:24:05;;;;;;;;;;;;;;;9.54;100.00;98797.13;5045775;28;19952;-79
2021/04/10 10:26:36;;;;;;;;;;;;;;;9.57;100.00;98797.84;5046150;28;19912;-79
2021/04/10 10:29:04;;;;;;;;;;;;;;;9.16;100.00;98792.25;5063100;28;19912;-81
2021/04/10 10:31:31;;;;;;;;;;;;;;;9.56;100.00;98801.31;5065409;28;19969;-79
2021/04/10 10:34:06;;;;;;;;;;;;;;;9.26;100.00;98792.81;5063224;28;19921;-79
2021/04/10 10:36:32;;;;;;;;;;;;;;;9.46;100.00;98789.63;5047448;28;19978;-80
2021/04/10 10:38:58;;;;;;;;;;;;;;;9.24;100.00;98789.47;5046443;28;19920;-80
2021/04/10 10:41:23;;;;;;;;;;;;;;;9.05;100.00;98784.00;5045912;28;19924;-80
2021/04/10 10:43:49;;;;;;;;;;;;;;;9.36;100.00;98786.50;5045313;28;20367;-80
2021/04/10 10:46:18;;;;;;;;;;;;;;;9.49;100.00;98783.56;5046310;28;19939;-80
2021/04/10 10:48:43;;;;;;;;;;;;;;;9.61;100.00;98773.72;5046034;28;19923;-80
2021/04/10 10:51:10;;;;;;;;;;;;;;;9.19;100.00;98774.19;5046743;28;19924;-80
2021/04/10 10:53:36;;;;;;;;;;;;;;;8.99;100.00;98773.94;5046071;28;20334;-80
2021/04/10 10:56:06;;;;;;;;;;;;;;;9.09;100.00;98770.19;5045473;28;20534;-80
2021/04/10 10:58:35;;;;;;;;;;;;;;;9.74;100.00;98763.03;5026690;28;19967;-80
2021/04/10 11:01:01;;;;;;;;;;;;;;;9.75;100.00;98769.88;5022330;28;19994;-80
2021/04/10 11:03:27;;;;;;;;;;;;;;;9.59;100.00;98757.50;5044837;28;19924;-80
2021/04/10 11:05:52;;;;;;;;;;;;;;;9.79;100.00;98758.63;5048378;28;20237;-80
2021/04/10 11:08:18;;;;;;;;;;;;;;;9.89;100.00;98754.84;5063276;28;19921;-80
2021/04/10 11:10:46;;;;;;;;;;;;;;;9.66;100.00;98765.03;5031307;28;19916;-80
2021/04/10 11:13:15;;;;;;;;;;;;;;;9.48;100.00;98762.16;5049997;28;20177;-79
2021/04/10 11:15:42;;;;;;;;;;;;;;;9.76;100.00;98753.56;5034103;28;19916;-81
2021/04/10 11:18:15;;;;;;;;;;;;;;;10.07;100.00;98745.66;5049692;28;19979;-80
2021/04/10 11:20:40;;;;;;;;;;;;;;;9.96;100.00;98743.44;5049571;28;19931;-80
2021/04/10 11:23:06;;;;;;;;;;;;;;;9.06;100.00;98739.47;5033046;28;19921;-80
2021/04/10 11:25:50;;;;;;;;;;;;;;;9.12;100.00;98734.16;5051326;28;19971;-80
2021/04/10 11:28:25;;;;;;;;;;;;;;;9.49;100.00;98732.13;5063030;28;19916;-80
2021/04/10 11:31:09;;;;;;;;;;;;;;;9.88;100.00;98730.03;5027930;28;20388;-81
2021/04/10 11:33:35;;;;;;;;;;;;;;;9.42;100.00;98732.34;5048305;28;20390;-80
2021/04/10 11:36:01;;;;;;;;;;;;;;;10.22;100.00;98718.56;5047848;28;19916;-79
2021/04/10 11:38:26;;;;;;;;;;;;;;;10.05;100.00;98722.56;5049406;28;19921;-80
2021/04/10 11:40:51;;;;;;;;;;;;;;;10.10;100.00;98713.84;5067402;28;19932;-80
2021/04/10 11:43:16;;;;;;;;;;;;;;;9.96;100.00;98716.88;5049022;28;20322;-79
2021/04/10 11:45:43;;;;;;;;;;;;;;;9.99;100.00;98716.78;5034303;28;19916;-79
2021/04/10 11:48:31;;;;;;;;;;;;;;;10.20;100.00;98707.50;5067771;28;19927;-80
2021/04/10 11:50:57;;;;;;;;;;;;;;;9.82;100.00;98702.75;5065169;28;19952;-79
2021/04/10 11:53:27;;;;;;;;;;;;;;;10.15;100.00;98710.22;5049891;28;19928;-81
2021/04/10 11:55:53;;;;;;;;;;;;;;;10.08;100.00;98702.75;5069082;28;20373;-80
2021/04/10 11:58:28;;;;;;;;;;;;;;;9.87;100.00;98705.16;5032179;28;19917;-79
2021/04/10 12:01:04;;;;;;;;;;;;;;;10.10;100.00;98703.53;5050568;28;19916;-78
2021/04/10 12:03:29;;;;;;;;;;;;;;;9.75;100.00;98708.16;5068391;28;19923;-80
2021/04/10 12:05:54;;;;;;;;;;;;;;;9.84;100.00;98700.16;5051464;28;19916;-80
2021/04/10 12:08:28;;;;;;;;;;;;;;;10.36;100.00;98695.78;5068806;28;19981;-80
2021/04/10 12:10:58;;;;;;;;;;;;;;;9.77;100.00;98696.09;5052889;28;19916;-82
2021/04/10 12:13:24;;;;;;;;;;;;;;;9.48;100.00;98695.31;5032371;28;19917;-80
2021/04/10 12:15:53;;;;;;;;;;;;;;;9.57;100.00;98689.88;5049195;28;19916;-79
2021/04/10 12:24:25;;;;;;;;;;;;;;;9.64;100.00;98691.34;5047138;28;19930;-81
2021/04/10 12:26:50;;;;;;;;;;;;;;;9.45;100.00;98687.72;5059321;28;19916;-80
2021/04/10 12:29:15;;;;;;;;;;;;;;;9.76;100.00;98686.69;5045449;28;20011;-79
2021/04/10 12:31:41;;;;;;;;;;;;;;;9.81;100.00;98677.09;5023738;28;19921;-80
2021/04/10 12:34:07;;;;;;;;;;;;;;;9.63;100.00;98681.97;5041419;28;19996;-79
2021/04/10 12:36:32;;;;;;;;;;;;;;;9.51;100.00;98684.97;5051613;28;19924;-81
2021/04/10 12:38:58;;;;;;;;;;;;;;;9.10;100.00;98676.84;5046336;28;20584;-80
2021/04/10 12:41:23;;;;;;;;;;;;;;;8.94;100.00;98673.03;5032458;28;19924;-80
2021/04/10 12:43:49;;;;;;;;;;;;;;;9.11;100.00;98670.81;5048614;28;19939;-80
2021/04/10 12:46:15;;;;;;;;;;;;;;;9.33;100.00;98665.84;5048192;28;19917;-80
2021/04/10 12:48:40;;;;;;;;;;;;;;;9.40;100.00;98661.34;5032731;28;19928;-80
2021/04/10 12:51:06;;;;;;;;;;;;;;;9.27;100.00;98655.75;5046158;28;19981;-80
2021/04/10 12:53:31;;;;;;;;;;;;;;;9.22;100.00;98660.19;5031657;28;20177;-80